Time;durP1;ratioP1;P1;durP2;ratioP2;P2;SDS_P1;SDS_P2;PMS_P1;PMS_P2;Temp;Humidity;BMP_temperature;BMP_pressure;BME280_temperature;BME280_humidity;BME280_pressure;Samples;Min_cycle;Max_cycle;Signal;HPM_P1;HPM_P2
2020/12/19 00:02:05;;;;;;;11.90;5.60;;;6.50;99.90;;;;;;5112063;28;20048;-78
2020/12/19 00:04:31;;;;;;;12.10;6.22;;;6.50;99.90;;;;;;5113258;28;20039;-79
2020/12/19 00:06:57;;;;;;;11.77;6.32;;;;;;;;;;5112231;28;20518;-79
2020/12/19 00:09:23;;;;;;;12.68;5.90;;;6.40;99.90;;;;;;5112675;28;20039;-79
2020/12/19 00:11:48;;;;;;;13.52;7.30;;;6.40;99.90;;;;;;5112121;28;20495;-79
2020/12/19 00:14:14;;;;;;;11.50;6.25;;;6.40;99.90;;;;;;5112036;28;20044;-79
2020/12/19 00:16:39;;;;;;;14.75;6.88;;;6.30;99.90;;;;;;5111605;28;20083;-79
2020/12/19 00:19:05;;;;;;;12.70;7.50;;;6.20;99.90;;;;;;5111433;28;20126;-79
2020/12/19 00:21:35;;;;;;;13.45;6.55;;;6.20;99.90;;;;;;5111718;28;20035;-79
2020/12/19 00:24:01;;;;;;;;;;;6.20;99.90;;;;;;5112408;28;20156;-79
2020/12/19 00:26:31;;;;;;;11.15;5.88;;;6.40;99.90;;;;;;5112992;28;20051;-79
2020/12/19 00:28:57;;;;;;;9.38;5.03;;;6.60;99.90;;;;;;5112203;28;20046;-79
2020/12/19 00:31:23;;;;;;;13.23;6.22;;;6.50;99.90;;;;;;5113195;28;20478;-79
2020/12/19 00:33:48;;;;;;;12.98;6.82;;;6.50;99.90;;;;;;5113121;28;20046;-79
2020/12/19 00:36:14;;;;;;;14.73;7.18;;;6.50;99.90;;;;;;5112849;28;20055;-79
2020/12/19 00:38:41;;;;;;;12.20;6.38;;;6.50;99.90;;;;;;5112533;28;20096;-79
2020/12/19 00:41:06;;;;;;;9.57;5.25;;;6.50;99.90;;;;;;5110957;28;20409;-79
2020/12/19 00:43:32;;;;;;;13.13;6.53;;;6.60;99.90;;;;;;5111350;28;20040;-79
2020/12/19 00:45:58;;;;;;;12.30;6.30;;;6.60;99.90;;;;;;5111211;28;20039;-80
2020/12/19 00:48:23;;;;;;;14.93;7.10;;;6.70;99.90;;;;;;5111337;28;20144;-79
2020/12/19 00:50:49;;;;;;;13.00;6.15;;;6.70;99.90;;;;;;5111613;28;20476;-79
2020/12/19 00:53:15;;;;;;;7.18;3.85;;;6.60;99.90;;;;;;5111064;28;20075;-80
2020/12/19 00:55:41;;;;;;;11.93;6.47;;;6.60;99.90;;;;;;5111084;28;20397;-79
2020/12/19 00:58:07;;;;;;;13.60;6.03;;;6.80;99.90;;;;;;5112492;28;20113;-79
2020/12/19 01:00:32;;;;;;;13.07;6.93;;;6.80;99.90;;;;;;5111725;28;20431;-79
2020/12/19 01:02:58;;;;;;;7.00;4.15;;;6.80;99.90;;;;;;5111941;27;20126;-79
2020/12/19 01:05:24;;;;;;;12.60;6.28;;;6.70;99.90;;;;;;5111151;28;20769;-79
2020/12/19 01:07:49;;;;;;;11.48;6.72;;;6.60;99.90;;;;;;5109086;28;20039;-79
2020/12/19 01:10:15;;;;;;;8.88;4.15;;;6.70;99.90;;;;;;5113325;28;20112;-79
2020/12/19 01:12:42;;;;;;;12.38;6.18;;;6.70;99.90;;;;;;5117189;28;20134;-80
2020/12/19 01:15:08;;;;;;;10.52;5.13;;;6.80;99.90;;;;;;5118686;28;20035;-79
2020/12/19 01:17:33;;;;;;;10.65;6.28;;;6.70;99.90;;;;;;5114999;28;20118;-79
2020/12/19 01:19:59;;;;;;;14.00;6.45;;;6.60;99.90;;;;;;5113824;28;20560;-79
2020/12/19 01:22:25;;;;;;;12.18;6.18;;;6.70;99.90;;;;;;5114749;28;20036;-79
2020/12/19 01:24:51;;;;;;;11.93;5.57;;;6.60;99.90;;;;;;5114625;28;20224;-79
2020/12/19 01:27:16;;;;;;;13.63;5.93;;;6.50;99.90;;;;;;5113777;28;20042;-79
2020/12/19 01:29:42;;;;;;;14.35;6.95;;;6.30;99.90;;;;;;5113687;28;20435;-79
2020/12/19 01:32:08;;;;;;;14.30;6.57;;;6.30;99.90;;;;;;5113685;28;20048;-79
2020/12/19 01:34:34;;;;;;;11.55;5.95;;;6.30;99.90;;;;;;5113810;28;20036;-79
2020/12/19 01:36:59;;;;;;;10.75;6.47;;;6.30;99.90;;;;;;5115335;28;20061;-79
2020/12/19 01:39:25;;;;;;;12.63;6.43;;;6.30;99.90;;;;;;5114335;28;20070;-80
2020/12/19 01:41:52;;;;;;;10.57;5.78;;;6.30;99.90;;;;;;5113915;28;20039;-79
2020/12/19 01:44:18;;;;;;;11.95;6.30;;;6.40;99.90;;;;;;5113650;28;20130;-79
2020/12/19 01:46:54;;;;;;;10.77;6.18;;;6.30;99.90;;;;;;5116982;28;20118;-79
2020/12/19 01:49:20;;;;;;;12.13;6.15;;;6.20;99.90;;;;;;5114228;28;20043;-79
2020/12/19 01:51:49;;;;;;;17.33;7.63;;;6.30;99.90;;;;;;5113607;28;20049;-79
2020/12/19 01:54:15;;;;;;;13.02;7.28;;;6.00;99.90;;;;;;5115266;28;20039;-79
2020/12/19 01:56:48;;;;;;;13.80;6.93;;;6.00;99.90;;;;;;5113171;28;20486;-79
2020/12/19 01:59:15;;;;;;;15.20;7.28;;;6.00;99.90;;;;;;5114020;28;20046;-79
2020/12/19 02:01:43;;;;;;;18.42;8.15;;;6.00;99.90;;;;;;5114432;28;20085;-79
2020/12/19 02:04:10;;;;;;;14.88;7.70;;;6.10;99.90;;;;;;5113039;28;20039;-79
2020/12/19 02:06:35;;;;;;;13.35;6.90;;;6.00;99.90;;;;;;5111437;28;20409;-79
2020/12/19 02:09:02;;;;;;;15.00;7.28;;;6.00;99.90;;;;;;5112224;28;20048;-79
2020/12/19 02:11:27;;;;;;;17.17;8.07;;;6.00;99.90;;;;;;5114281;28;20122;-79
2020/12/19 02:13:53;;;;;;;12.60;7.07;;;6.00;99.90;;;;;;5112867;28;20122;-79
2020/12/19 02:16:20;;;;;;;15.68;7.75;;;6.00;99.90;;;;;;5114344;28;20516;-79
2020/12/19 02:18:45;;;;;;;14.63;7.55;;;6.00;99.90;;;;;;5112404;28;20088;-79
2020/12/19 02:21:12;;;;;;;16.27;8.15;;;6.20;99.90;;;;;;5112970;28;20044;-79
2020/12/19 02:23:39;;;;;;;13.68;7.22;;;6.10;99.90;;;;;;5113881;28;20456;-79
2020/12/19 02:26:05;;;;;;;19.73;7.80;;;6.10;99.90;;;;;;5114215;28;20047;-79
2020/12/19 02:28:30;;;;;;;14.43;7.50;;;6.10;99.90;;;;;;5114194;28;20054;-79
2020/12/19 02:30:56;;;;;;;13.05;6.95;;;6.10;99.90;;;;;;5113767;28;20074;-79
2020/12/19 02:33:22;;;;;;;14.43;7.55;;;6.10;99.90;;;;;;5113942;28;20404;-79
2020/12/19 02:35:47;;;;;;;15.05;8.27;;;6.10;99.90;;;;;;5113888;28;20040;-79
2020/12/19 02:38:13;;;;;;;15.60;7.97;;;6.10;99.90;;;;;;5112873;28;20039;-79
2020/12/19 02:40:39;;;;;;;13.32;6.63;;;6.20;99.90;;;;;;5113421;28;20119;-79
2020/12/19 02:43:05;;;;;;;14.40;7.85;;;6.20;99.90;;;;;;5112468;28;20047;-79
2020/12/19 02:45:30;;;;;;;17.65;7.75;;;6.30;99.90;;;;;;5113968;28;20039;-79
2020/12/19 02:47:56;;;;;;;18.75;8.40;;;6.30;99.90;;;;;;5113611;28;20038;-79
2020/12/19 02:50:21;;;;;;;18.10;8.48;;;6.30;99.90;;;;;;5113208;28;20048;-79
2020/12/19 02:52:47;;;;;;;17.85;8.25;;;6.30;99.90;;;;;;5113691;28;20071;-79
2020/12/19 02:55:12;;;;;;;19.25;7.13;;;6.20;99.90;;;;;;5112354;28;20081;-79
2020/12/19 02:57:39;;;;;;;19.02;8.80;;;6.20;99.90;;;;;;5113983;28;20044;-80
2020/12/19 03:00:05;;;;;;;18.02;8.60;;;6.20;99.90;;;;;;5113099;28;20530;-79
2020/12/19 03:02:31;;;;;;;19.23;8.93;;;6.20;99.90;;;;;;5112862;28;20035;-79
2020/12/19 03:04:56;;;;;;;19.10;9.30;;;6.30;99.90;;;;;;5113564;28;20477;-79
2020/12/19 03:07:22;;;;;;;21.38;9.90;;;6.20;99.90;;;;;;5111271;28;20036;-79
2020/12/19 03:09:48;;;;;;;17.52;9.70;;;6.20;99.90;;;;;;5111767;28;20477;-79
2020/12/19 03:12:13;;;;;;;20.35;10.50;;;6.00;99.90;;;;;;5114722;28;20118;-79
2020/12/19 03:14:40;;;;;;;21.40;10.50;;;6.00;99.90;;;;;;5115854;28;20035;-80
2020/12/19 03:17:05;;;;;;;21.67;10.02;;;5.90;99.90;;;;;;5114290;28;20382;-80
2020/12/19 03:19:31;;;;;;;21.85;10.55;;;5.90;99.90;;;;;;5116497;28;20089;-80
2020/12/19 03:21:56;;;;;;;22.52;11.52;;;5.90;99.90;;;;;;5118697;28;20078;-79
2020/12/19 03:24:22;;;;;;;24.98;11.93;;;5.90;99.90;;;;;;5119341;28;20043;-80
2020/12/19 03:26:48;;;;;;;26.20;11.10;;;5.80;99.90;;;;;;5119509;28;20085;-80
2020/12/19 03:29:13;;;;;;;23.73;10.95;;;5.80;99.90;;;;;;5118017;28;20039;-79
2020/12/19 03:31:40;;;;;;;28.63;12.02;;;5.80;99.90;;;;;;5119107;28;20508;-79
2020/12/19 03:34:06;;;;;;;23.23;11.90;;;5.80;99.90;;;;;;5117346;27;20554;-79
2020/12/19 03:36:31;;;;;;;26.98;11.52;;;5.70;99.90;;;;;;5117072;28;20052;-80
2020/12/19 03:38:57;;;;;;;22.15;11.18;;;5.70;99.90;;;;;;5118460;28;20047;-80
2020/12/19 03:41:22;;;;;;;23.98;11.65;;;5.70;99.90;;;;;;5117958;28;20035;-79
2020/12/19 03:43:48;;;;;;;22.60;11.45;;;5.70;99.90;;;;;;5118412;28;20503;-80
2020/12/19 03:46:15;;;;;;;25.58;12.18;;;5.70;99.90;;;;;;5119145;27;20048;-81
2020/12/19 03:48:42;;;;;;;28.05;12.18;;;5.70;99.90;;;;;;5117035;28;20032;-80
2020/12/19 03:51:08;;;;;;;23.15;11.70;;;5.70;99.90;;;;;;5116703;28;20512;-80
2020/12/19 03:53:33;;;;;;;28.30;12.60;;;5.70;99.90;;;;;;5118250;28;20036;-80
2020/12/19 03:55:59;;;;;;;24.25;11.50;;;5.70;99.90;;;;;;5117510;28;20453;-80
2020/12/19 03:58:25;;;;;;;24.17;12.23;;;5.70;99.90;;;;;;5118424;28;20044;-80
2020/12/19 04:00:50;;;;;;;29.20;12.05;;;5.70;99.90;;;;;;5117339;28;20085;-79
2020/12/19 04:03:16;;;;;;;25.30;12.07;;;5.60;99.90;;;;;;5117069;28;20473;-80
2020/12/19 04:05:42;;;;;;;23.70;12.13;;;5.50;99.90;;;;;;5119392;28;20039;-80
2020/12/19 04:08:08;;;;;;;26.33;11.68;;;5.50;99.90;;;;;;5117038;28;20040;-79
2020/12/19 04:10:34;;;;;;;24.52;10.55;;;;;;;;;;5118160;28;20523;-80
2020/12/19 04:12:59;;;;;;;22.98;10.70;;;5.50;99.90;;;;;;5122031;28;20074;-80
2020/12/19 04:15:25;;;;;;;24.65;11.60;;;5.60;99.90;;;;;;5120891;28;20027;-81
2020/12/19 04:17:51;;;;;;;21.67;10.38;;;5.50;99.90;;;;;;5120439;28;20035;-80
2020/12/19 04:20:17;;;;;;;22.50;10.07;;;5.50;99.90;;;;;;5115432;28;20042;-79
2020/12/19 04:22:44;;;;;;;21.25;10.00;;;5.50;99.90;;;;;;5116435;28;20066;-79
2020/12/19 04:25:10;;;;;;;23.60;10.23;;;5.60;99.90;;;;;;5115706;28;20481;-80
2020/12/19 04:27:36;;;;;;;20.73;10.48;;;5.50;99.90;;;;;;5117240;28;20038;-80
2020/12/19 04:30:03;;;;;;;20.08;9.90;;;5.60;99.90;;;;;;5118787;28;20489;-80
2020/12/19 04:32:29;;;;;;;20.60;9.35;;;5.60;99.90;;;;;;5118310;28;20043;-80
2020/12/19 04:34:54;;;;;;;25.55;12.02;;;5.60;99.90;;;;;;5118842;28;20040;-80
2020/12/19 04:37:20;;;;;;;22.30;10.50;;;5.60;99.90;;;;;;5119776;28;20080;-80
2020/12/19 04:39:46;;;;;;;16.95;8.98;;;5.60;99.90;;;;;;5117940;28;20488;-80
2020/12/19 04:42:12;;;;;;;25.05;10.32;;;5.60;99.90;;;;;;5115046;28;20082;-79
2020/12/19 04:44:38;;;;;;;21.08;10.35;;;5.60;99.90;;;;;;5114723;28;20043;-79
2020/12/19 04:47:04;;;;;;;21.50;10.57;;;5.60;99.90;;;;;;5115741;28;20038;-79
2020/12/19 04:49:29;;;;;;;23.10;11.13;;;5.60;99.90;;;;;;5115609;28;20043;-79
2020/12/19 04:51:56;;;;;;;22.67;10.35;;;5.60;99.90;;;;;;5117464;28;20042;-79
2020/12/19 04:54:22;;;;;;;20.42;10.10;;;5.60;99.90;;;;;;5114765;28;20515;-79
2020/12/19 04:56:54;;;;;;;22.60;11.05;;;5.70;99.90;;;;;;5115442;28;20071;-79
2020/12/19 04:59:20;;;;;;;21.58;11.25;;;5.80;99.90;;;;;;5113958;28;20130;-79
2020/12/19 05:01:45;;;;;;;18.70;8.73;;;5.80;99.90;;;;;;5114496;28;20062;-79
2020/12/19 05:04:13;;;;;;;23.10;10.38;;;5.80;99.90;;;;;;5114450;28;20093;-79
2020/12/19 05:06:39;;;;;;;21.52;9.50;;;5.80;99.90;;;;;;5114814;28;20522;-79
2020/12/19 05:09:05;;;;;;;20.33;9.35;;;5.80;99.90;;;;;;5114951;28;20031;-79
2020/12/19 05:11:30;;;;;;;24.08;11.18;;;5.90;99.90;;;;;;5114210;28;20067;-79
2020/12/19 05:13:57;;;;;;;20.25;10.15;;;5.90;99.90;;;;;;5115635;28;20454;-79
2020/12/19 05:16:22;;;;;;;27.20;11.52;;;5.90;99.90;;;;;;5115243;28;20474;-79
2020/12/19 05:18:48;;;;;;;21.00;10.13;;;5.90;99.90;;;;;;5115732;28;20096;-80
2020/12/19 05:21:14;;;;;;;22.30;10.00;;;5.90;99.90;;;;;;5116552;28;20040;-80
2020/12/19 05:23:41;;;;;;;21.55;9.63;;;5.80;99.90;;;;;;5115619;28;20062;-80
2020/12/19 05:26:09;;;;;;;18.08;9.13;;;5.80;99.90;;;;;;5116467;28;20038;-80
2020/12/19 05:28:36;;;;;;;23.33;10.63;;;5.90;99.90;;;;;;5114880;28;20054;-80
2020/12/19 05:31:03;;;;;;;21.05;9.13;;;5.90;99.90;;;;;;5115962;28;20043;-80
2020/12/19 05:33:34;;;;;;;18.80;8.75;;;5.90;99.90;;;;;;5116081;28;20035;-80
2020/12/19 05:36:00;;;;;;;18.90;9.73;;;5.80;99.90;;;;;;5115825;28;20043;-81
2020/12/19 05:38:31;;;;;;;18.90;9.52;;;5.80;99.90;;;;;;5116356;28;20092;-80
2020/12/19 05:40:57;;;;;;;20.60;9.80;;;5.70;99.90;;;;;;5116219;28;20096;-80
2020/12/19 05:43:23;;;;;;;16.83;8.82;;;5.50;99.90;;;;;;5117808;28;20547;-80
2020/12/19 05:45:49;;;;;;;21.73;10.35;;;5.40;99.90;;;;;;5116928;28;20039;-80
2020/12/19 05:48:15;;;;;;;21.13;9.38;;;5.30;99.90;;;;;;5116633;28;20032;-80
2020/12/19 05:50:42;;;;;;;24.67;10.93;;;5.30;99.90;;;;;;5115142;28;20040;-80
2020/12/19 05:53:09;;;;;;;21.90;10.05;;;5.30;99.90;;;;;;5114299;28;20400;-79
2020/12/19 05:55:35;;;;;;;22.33;9.98;;;5.30;99.90;;;;;;5113825;28;20039;-79
2020/12/19 05:58:03;;;;;;;24.55;11.07;;;5.20;99.90;;;;;;5114460;28;20396;-79
2020/12/19 06:00:31;;;;;;;23.85;11.25;;;5.30;99.90;;;;;;5114682;28;20448;-81
2020/12/19 06:02:57;;;;;;;23.38;11.57;;;5.30;99.90;;;;;;5115376;28;20434;-80
2020/12/19 06:05:24;;;;;;;21.88;9.80;;;5.20;99.90;;;;;;5114541;28;20040;-80
2020/12/19 06:07:49;;;;;;;20.35;10.07;;;5.40;99.90;;;;;;5114297;28;20489;-79
2020/12/19 06:10:17;;;;;;;24.90;10.82;;;5.60;99.90;;;;;;5112679;28;20035;-79
2020/12/19 06:12:52;;;;;;;24.55;11.85;;;5.60;99.90;;;;;;5113012;28;20051;-79
2020/12/19 06:15:47;;;;;;;20.77;10.88;;;5.60;99.90;;;;;;5113265;28;20049;-79
2020/12/19 06:18:18;;;;;;;25.42;11.77;;;5.60;99.90;;;;;;5114183;28;20495;-79
2020/12/19 06:20:45;;;;;;;25.63;11.98;;;5.60;99.90;;;;;;5112435;28;20512;-80
2020/12/19 06:23:15;;;;;;;25.67;11.98;;;5.60;99.90;;;;;;5114471;28;20055;-80
2020/12/19 06:25:42;;;;;;;25.70;11.57;;;5.50;99.90;;;;;;5113069;28;20036;-79
2020/12/19 06:28:09;;;;;;;24.92;11.70;;;5.50;99.90;;;;;;5114163;28;20054;-79
2020/12/19 06:30:35;;;;;;;27.75;12.40;;;5.50;99.90;;;;;;5112151;28;20047;-79
2020/12/19 06:33:14;;;;;;;24.02;11.52;;;5.50;99.90;;;;;;5114182;28;20035;-79
2020/12/19 06:35:49;;;;;;;28.92;12.77;;;5.50;99.90;;;;;;5112638;28;20039;-79
2020/12/19 06:38:36;;;;;;;29.75;12.95;;;5.60;99.90;;;;;;5112478;28;20039;-79
2020/12/19 06:41:02;;;;;;;30.60;12.63;;;5.60;99.90;;;;;;5112643;28;20143;-80
2020/12/19 06:43:27;;;;;;;23.85;12.25;;;5.50;99.90;;;;;;5113917;28;20144;-79
2020/12/19 06:45:53;;;;;;;28.30;12.23;;;5.50;99.90;;;;;;5113960;28;20044;-80
2020/12/19 06:48:32;;;;;;;28.60;12.85;;;5.40;99.90;;;;;;5113549;28;20032;-79
2020/12/19 06:51:01;;;;;;;22.23;11.38;;;5.40;99.90;;;;;;5113456;28;20042;-79
2020/12/19 06:53:28;;;;;;;25.73;10.93;;;5.50;99.90;;;;;;5113801;28;20039;-79
2020/12/19 06:55:54;;;;;;;27.73;13.15;;;5.60;99.90;;;;;;5113671;28;20081;-80
2020/12/19 06:58:31;;;;;;;25.73;12.85;;;5.50;99.90;;;;;;5113526;28;20043;-79
2020/12/19 07:00:57;;;;;;;31.00;13.80;;;5.50;99.90;;;;;;5111826;28;20050;-79
2020/12/19 07:03:37;;;;;;;22.83;9.95;;;5.50;99.90;;;;;;5113887;28;20035;-79
2020/12/19 07:06:14;;;;;;;28.02;13.75;;;5.60;99.90;;;;;;5112589;28;20066;-80
2020/12/19 07:08:40;;;;;;;24.67;12.27;;;5.60;99.90;;;;;;5110053;28;20489;-80
2020/12/19 07:11:11;;;;;;;30.83;13.40;;;5.50;99.90;;;;;;5113510;28;20040;-79
2020/12/19 07:13:54;;;;;;;23.00;11.27;;;5.70;99.90;;;;;;5113795;28;20074;-80
2020/12/19 07:16:42;;;;;;;25.98;11.85;;;5.70;99.90;;;;;;5113616;28;20036;-80
2020/12/19 07:19:18;;;;;;;24.35;11.80;;;5.70;99.90;;;;;;5111812;28;20627;-79
2020/12/19 07:21:45;;;;;;;20.45;10.38;;;5.70;99.90;;;;;;5113565;28;20089;-79
2020/12/19 07:24:11;;;;;;;24.90;11.32;;;5.60;99.90;;;;;;5113515;28;20054;-80
2020/12/19 07:26:37;;;;;;;23.13;11.63;;;5.90;99.90;;;;;;5112392;28;20031;-80
2020/12/19 07:29:12;;;;;;;24.08;11.93;;;5.80;99.90;;;;;;5113099;28;20088;-80
2020/12/19 07:31:42;;;;;;;20.42;10.35;;;5.80;99.90;;;;;;5113801;28;20481;-79
2020/12/19 07:34:08;;;;;;;14.80;6.57;;;6.00;99.90;;;;;;5112280;28;20044;-79
2020/12/19 07:36:37;;;;;;;25.02;10.77;;;6.00;99.90;;;;;;5113323;28;20039;-80
2020/12/19 07:39:04;;;;;;;21.35;10.15;;;6.10;99.90;;;;;;5121899;28;20035;-81
2020/12/19 07:41:30;;;;;;;18.98;8.95;;;6.10;99.90;;;;;;5114940;28;20408;-79
2020/12/19 07:44:09;;;;;;;22.73;10.18;;;6.10;99.90;;;;;;5112391;28;20130;-80
2020/12/19 07:46:35;;;;;;;21.05;9.43;;;6.10;99.90;;;;;;5118018;28;20032;-81
2020/12/19 07:49:01;;;;;;;19.23;9.70;;;6.10;99.90;;;;;;5119506;28;20496;-80
2020/12/19 07:51:26;;;;;;;17.67;9.70;;;6.00;99.90;;;;;;5119192;28;20058;-82
2020/12/19 07:53:52;;;;;;;19.83;9.95;;;6.00;99.90;;;;;;5120456;28;20044;-81
2020/12/19 07:56:19;;;;;;;21.92;11.23;;;5.90;99.90;;;;;;5121402;28;20042;-80
2020/12/19 07:58:46;;;;;;;23.77;11.35;;;5.90;99.90;;;;;;5120819;28;20078;-80
2020/12/19 08:01:12;;;;;;;23.02;11.50;;;6.00;99.90;;;;;;5119997;28;20061;-81
2020/12/19 08:03:37;;;;;;;22.00;10.82;;;5.90;99.90;;;;;;5121167;28;20031;-80
2020/12/19 08:06:03;;;;;;;19.13;9.15;;;6.00;99.90;;;;;;5124232;28;20067;-81
2020/12/19 08:08:29;;;;;;;23.75;11.63;;;6.00;99.90;;;;;;5123472;28;20035;-81
2020/12/19 08:11:00;;;;;;;21.17;11.02;;;5.90;99.90;;;;;;5126026;28;20055;-81
2020/12/19 08:13:26;;;;;;;21.35;10.45;;;5.80;99.90;;;;;;5126278;28;20122;-82
2020/12/19 08:15:54;;;;;;;19.58;10.75;;;5.80;99.90;;;;;;5127029;28;20043;-81
2020/12/19 08:18:20;;;;;;;19.65;10.18;;;5.80;99.90;;;;;;5126332;28;20051;-81
2020/12/19 08:20:47;;;;;;;21.58;10.55;;;5.80;99.90;;;;;;5125773;28;20040;-81
2020/12/19 08:23:13;;;;;;;22.02;10.73;;;5.80;99.90;;;;;;5135121;28;20098;-81
2020/12/19 08:25:39;;;;;;;23.15;11.52;;;5.80;99.90;;;;;;5129753;28;20039;-81
2020/12/19 08:28:05;;;;;;;21.20;10.80;;;5.70;99.90;;;;;;5122009;28;20078;-81
2020/12/19 08:30:32;;;;;;;23.55;10.80;;;5.60;99.90;;;;;;5122866;28;20118;-80
2020/12/19 08:33:00;;;;;;;24.10;11.75;;;5.60;99.90;;;;;;5125579;28;20043;-80
2020/12/19 08:35:27;;;;;;;20.92;11.48;;;5.40;99.90;;;;;;5125238;28;20119;-80
2020/12/19 08:38:03;;;;;;;23.17;12.15;;;5.40;99.90;;;;;;5124698;28;20036;-80
2020/12/19 08:40:33;;;;;;;23.70;11.15;;;5.60;99.90;;;;;;5123751;28;20453;-81
2020/12/19 08:42:59;;;;;;;25.55;12.10;;;5.60;99.90;;;;;;5122152;28;20536;-80
2020/12/19 08:45:27;;;;;;;23.00;11.57;;;5.60;99.90;;;;;;5123885;28;20043;-80
2020/12/19 08:47:56;;;;;;;20.92;11.30;;;5.60;99.90;;;;;;5121672;28;20040;-82
2020/12/19 08:50:23;;;;;;;21.23;11.55;;;5.50;99.90;;;;;;5120866;28;20048;-81
2020/12/19 08:52:59;;;;;;;23.10;11.27;;;5.60;99.90;;;;;;5123610;28;20446;-81
2020/12/19 08:55:25;;;;;;;20.73;10.48;;;5.90;99.90;;;;;;5122976;28;20066;-82
2020/12/19 08:57:51;;;;;;;21.63;11.63;;;6.00;99.90;;;;;;5123244;28;20470;-80
2020/12/19 09:00:16;;;;;;;15.10;8.13;;;6.10;99.90;;;;;;5122732;28;20059;-80
2020/12/19 09:02:43;;;;;;;19.92;10.30;;;6.20;99.90;;;;;;5123575;28;20557;-80
2020/12/19 09:05:10;;;;;;;16.77;9.25;;;6.30;99.90;;;;;;5122168;28;20156;-81
2020/12/19 09:07:37;;;;;;;17.00;9.48;;;6.40;99.90;;;;;;5122847;28;20048;-81
2020/12/19 09:10:24;;;;;;;18.05;9.25;;;6.40;99.90;;;;;;5123064;28;20079;-80
2020/12/19 09:13:08;;;;;;;19.10;9.50;;;6.50;99.90;;;;;;5123661;28;20035;-81
2020/12/19 09:15:34;;;;;;;23.70;10.32;;;6.50;99.90;;;;;;5123332;28;20550;-80
2020/12/19 09:18:14;;;;;;;18.13;9.48;;;6.50;99.90;;;;;;5123524;28;20047;-81
2020/12/19 09:20:42;;;;;;;22.00;11.13;;;6.60;99.90;;;;;;5122689;28;20039;-80
2020/12/19 09:23:07;;;;;;;22.95;11.23;;;6.60;99.90;;;;;;5123353;28;20039;-80
2020/12/19 09:25:33;;;;;;;29.27;14.35;;;6.60;99.90;;;;;;5121601;28;20036;-82
2020/12/19 09:27:59;;;;;;;23.05;12.43;;;6.60;99.90;;;;;;5120849;28;20028;-81
2020/12/19 09:30:25;;;;;;;23.90;13.05;;;6.60;99.90;;;;;;5120582;28;20068;-80
2020/12/19 09:32:50;;;;;;;26.42;13.07;;;6.60;99.90;;;;;;5122700;28;20044;-79
2020/12/19 09:35:16;;;;;;;13.07;6.53;;;6.80;99.90;;;;;;5121789;28;20557;-79
2020/12/19 09:37:42;;;;;;;20.35;9.35;;;7.30;99.90;;;;;;5120808;28;20126;-80
2020/12/19 09:40:08;;;;;;;16.77;9.35;;;7.90;99.90;;;;;;5120531;28;20485;-80
2020/12/19 09:42:33;;;;;;;12.48;7.03;;;8.00;99.90;;;;;;5122663;28;20050;-81
2020/12/19 09:44:59;;;;;;;9.02;5.05;;;8.20;99.90;;;;;;5120674;28;20063;-80
2020/12/19 09:47:25;;;;;;;15.73;7.82;;;8.20;99.90;;;;;;5119832;28;20103;-80
2020/12/19 09:49:50;;;;;;;11.05;6.00;;;8.40;99.90;;;;;;5120589;28;20485;-79
2020/12/19 09:52:16;;;;;;;12.00;6.22;;;8.50;99.90;;;;;;5121505;28;20032;-81
2020/12/19 09:54:42;;;;;;;18.60;9.93;;;8.60;99.90;;;;;;5123670;28;20374;-81
2020/12/19 09:57:08;;;;;;;16.75;9.27;;;8.60;99.90;;;;;;5121281;28;20044;-80
2020/12/19 09:59:34;;;;;;;14.27;8.63;;;8.70;99.90;;;;;;5122739;28;20050;-81
2020/12/19 10:01:59;;;;;;;14.00;8.15;;;8.90;99.90;;;;;;5122839;28;20110;-81
2020/12/19 10:04:25;;;;;;;17.48;9.18;;;8.90;99.90;;;;;;5123246;28;20469;-81
2020/12/19 10:06:51;;;;;;;20.05;9.20;;;9.00;99.90;;;;;;5122539;28;20031;-79
2020/12/19 10:09:16;;;;;;;15.88;8.02;;;9.10;99.90;;;;;;5121297;28;20585;-81
2020/12/19 10:11:43;;;;;;;15.18;8.18;;;9.00;99.90;;;;;;5121007;28;20071;-80
2020/12/19 10:14:09;;;;;;;14.25;8.18;;;9.10;99.90;;;;;;5121917;28;20402;-80
2020/12/19 10:16:35;;;;;;;12.20;6.25;;;9.10;99.90;;;;;;5123456;28;20075;-80
2020/12/19 10:19:01;;;;;;;10.68;5.88;;;9.20;99.90;;;;;;5122211;28;20047;-81
2020/12/19 10:21:26;;;;;;;11.45;6.35;;;9.20;99.90;;;;;;5123243;28;20051;-79
2020/12/19 10:23:52;;;;;;;10.90;6.70;;;9.30;99.90;;;;;;5121953;28;20040;-81
2020/12/19 10:26:18;;;;;;;11.93;6.88;;;9.60;99.90;;;;;;5122047;28;20374;-80
2020/12/19 10:28:44;;;;;;;8.85;4.95;;;10.00;99.90;;;;;;5122224;28;20386;-79
2020/12/19 10:31:10;;;;;;;9.38;4.90;;;9.90;99.90;;;;;;5120484;28;20044;-81
2020/12/19 10:33:35;;;;;;;9.80;4.80;;;9.80;99.90;;;;;;5121407;28;20431;-81
2020/12/19 10:36:01;;;;;;;11.18;5.90;;;9.90;99.90;;;;;;5121228;28;20035;-80
2020/12/19 10:38:26;;;;;;;8.93;4.30;;;10.00;99.90;;;;;;5122834;28;20481;-80
2020/12/19 10:40:52;;;;;;;7.93;4.53;;;9.90;99.90;;;;;;5119997;28;20040;-79
2020/12/19 10:43:18;;;;;;;14.20;7.40;;;10.10;99.90;;;;;;5117841;28;20043;-80
2020/12/19 10:45:45;;;;;;;13.45;7.10;;;10.00;99.90;;;;;;5122052;28;20044;-81
2020/12/19 10:48:11;;;;;;;9.93;5.72;;;10.50;99.90;;;;;;5122448;28;20092;-80
2020/12/19 10:50:37;;;;;;;12.77;6.95;;;10.50;99.90;;;;;;5120307;28;20035;-80
2020/12/19 10:53:02;;;;;;;13.27;7.20;;;10.50;99.90;;;;;;5120825;28;20084;-79
2020/12/19 10:55:28;;;;;;;9.10;5.28;;;10.60;99.90;;;;;;5122178;28;20128;-81
2020/12/19 10:57:53;;;;;;;12.43;6.93;;;10.40;99.90;;;;;;5117492;28;20438;-79
2020/12/19 11:00:19;;;;;;;11.00;5.95;;;10.20;99.90;;;;;;5118426;28;20062;-79
2020/12/19 11:02:45;;;;;;;17.63;8.30;;;10.20;99.90;;;;;;5117434;28;20071;-80
2020/12/19 11:05:11;;;;;;;10.65;6.35;;;10.60;99.90;;;;;;5117603;28;20054;-80
2020/12/19 11:07:37;;;;;;;13.60;6.03;;;11.00;99.90;;;;;;5118414;28;20064;-79
2020/12/19 11:10:03;;;;;;;13.82;7.13;;;11.00;99.90;;;;;;5117287;28;20074;-80
2020/12/19 11:12:29;;;;;;;11.00;5.30;;;10.90;99.90;;;;;;5117481;28;20058;-82
2020/12/19 11:14:55;;;;;;;8.63;4.22;;;;;;;;;;5116579;28;20039;-79
2020/12/19 11:17:21;;;;;;;10.10;5.47;;;10.50;99.90;;;;;;5118500;28;20535;-81
2020/12/19 11:19:47;;;;;;;7.00;3.97;;;10.90;99.90;;;;;;5116861;28;20058;-80
2020/12/19 11:22:13;;;;;;;11.63;5.32;;;10.90;99.90;;;;;;5116515;28;20127;-80
2020/12/19 11:24:39;;;;;;;11.82;6.35;;;11.00;99.90;;;;;;5119063;28;20089;-80
2020/12/19 11:27:04;;;;;;;10.48;5.75;;;11.10;99.90;;;;;;5118022;28;20130;-80
2020/12/19 11:29:30;;;;;;;11.48;5.90;;;11.10;99.90;;;;;;5117882;28;20566;-79
2020/12/19 11:31:55;;;;;;;8.40;4.78;;;11.10;99.90;;;;;;5118386;28;20040;-80
2020/12/19 11:34:21;;;;;;;11.07;6.00;;;11.10;99.90;;;;;;5117860;28;20065;-79
2020/12/19 11:36:48;;;;;;;10.02;5.97;;;11.30;99.90;;;;;;5116885;28;20040;-80
2020/12/19 11:39:14;;;;;;;10.30;6.07;;;11.00;99.90;;;;;;5118572;28;20815;-80
2020/12/19 11:41:40;;;;;;;6.00;2.92;;;10.90;99.90;;;;;;5121194;28;20044;-81
2020/12/19 11:44:07;;;;;;;9.18;5.18;;;10.80;99.90;;;;;;5123084;28;20078;-80
2020/12/19 11:46:33;;;;;;;12.35;6.38;;;10.90;99.90;;;;;;5122717;28;20060;-80
2020/12/19 11:48:59;;;;;;;7.68;4.50;;;11.00;99.90;;;;;;5121660;28;20070;-81
2020/12/19 11:51:29;;;;;;;10.65;5.35;;;11.30;99.90;;;;;;5121693;28;20043;-80
2020/12/19 11:53:56;;;;;;;8.13;4.75;;;11.50;99.90;;;;;;5123016;28;20039;-80
2020/12/19 11:56:21;;;;;;;8.70;4.70;;;11.40;99.90;;;;;;5120788;28;20055;-80
2020/12/19 11:58:47;;;;;;;9.23;5.03;;;11.20;99.90;;;;;;5122676;28;20048;-80
2020/12/19 12:01:12;;;;;;;9.82;4.85;;;11.20;99.90;;;;;;5120876;28;20126;-79
2020/12/19 12:03:38;;;;;;;8.30;4.63;;;11.30;99.90;;;;;;5122051;28;20134;-81
2020/12/19 12:06:04;;;;;;;9.00;5.28;;;11.40;99.90;;;;;;5123405;28;20040;-81
2020/12/19 12:08:29;;;;;;;5.20;2.10;;;11.40;99.90;;;;;;5126266;28;20027;-79
2020/12/19 12:10:56;;;;;;;6.35;3.53;;;11.20;99.90;;;;;;5133053;28;20036;-81
2020/12/19 12:13:21;;;;;;;7.20;3.72;;;11.20;99.90;;;;;;5119614;28;20075;-80
2020/12/19 12:15:47;;;;;;;7.07;4.53;;;11.20;99.90;;;;;;5120051;28;20047;-80
2020/12/19 12:18:12;;;;;;;8.30;4.72;;;11.40;99.90;;;;;;5120906;28;20540;-80
2020/12/19 12:20:38;;;;;;;5.05;3.55;;;11.40;99.90;;;;;;5118533;28;20044;-80
2020/12/19 12:23:05;;;;;;;6.38;3.72;;;11.50;99.90;;;;;;5120267;28;20503;-81
2020/12/19 12:25:32;;;;;;;8.38;4.65;;;11.40;99.90;;;;;;5119096;28;20157;-79
2020/12/19 12:27:58;;;;;;;6.88;4.40;;;11.40;99.90;;;;;;5119635;28;20509;-81
2020/12/19 12:30:24;;;;;;;6.20;3.47;;;11.40;99.90;;;;;;5120092;28;20051;-79
2020/12/19 12:32:50;;;;;;;8.80;4.47;;;11.40;99.90;;;;;;5118890;28;20053;-81
2020/12/19 12:35:15;;;;;;;6.78;2.78;;;11.20;99.90;;;;;;5118610;28;20404;-80
2020/12/19 12:37:41;;;;;;;7.50;3.70;;;10.90;99.90;;;;;;5119118;28;20036;-80
2020/12/19 12:40:07;;;;;;;8.50;5.07;;;10.70;99.90;;;;;;5118618;28;20055;-80
2020/12/19 12:42:32;;;;;;;7.57;3.90;;;10.70;99.90;;;;;;5119012;28;20086;-81